sensor_id;sensor_type;location;lat;lon;timestamp;temperature;humidity
59075;DHT22;44860;53.020;6.738;2022-08-04T00:04:23;20.60;99.90
59075;DHT22;44860;53.020;6.738;2022-08-04T00:12:11;20.50;99.90
59075;DHT22;44860;53.020;6.738;2022-08-04T00:14:44;20.50;99.90
59075;DHT22;44860;53.020;6.738;2022-08-04T00:17:11;20.50;99.90
59075;DHT22;44860;53.020;6.738;2022-08-04T00:19:43;20.50;99.90
59075;DHT22;44860;53.020;6.738;2022-08-04T00:22:10;20.50;99.90
59075;DHT22;44860;53.020;6.738;2022-08-04T00:24:36;20.40;99.90
59075;DHT22;44860;53.020;6.738;2022-08-04T00:27:03;20.40;99.90
59075;DHT22;44860;53.020;6.738;2022-08-04T00:29:30;20.40;99.90
59075;DHT22;44860;53.020;6.738;2022-08-04T00:31:55;20.40;99.90
59075;DHT22;44860;53.020;6.738;2022-08-04T00:34:26;20.30;99.90
59075;DHT22;44860;53.020;6.738;2022-08-04T00:36:53;20.30;99.90
59075;DHT22;44860;53.020;6.738;2022-08-04T00:39:20;20.30;99.90
59075;DHT22;44860;53.020;6.738;2022-08-04T00:50:19;20.30;99.90
59075;DHT22;44860;53.020;6.738;2022-08-04T00:53:00;20.30;99.90
59075;DHT22;44860;53.020;6.738;2022-08-04T00:58:42;20.30;99.90
59075;DHT22;44860;53.020;6.738;2022-08-04T01:04:17;20.30;99.90
59075;DHT22;44860;53.020;6.738;2022-08-04T01:20:33;20.30;99.90
59075;DHT22;44860;53.020;6.738;2022-08-04T01:28:59;20.20;99.90
59075;DHT22;44860;53.020;6.738;2022-08-04T01:34:19;20.20;99.90
59075;DHT22;44860;53.020;6.738;2022-08-04T01:36:57;20.20;99.90
59075;DHT22;44860;53.020;6.738;2022-08-04T01:39:33;20.20;99.90
59075;DHT22;44860;53.020;6.738;2022-08-04T01:42:05;20.20;99.90
59075;DHT22;44860;53.020;6.738;2022-08-04T01:44:32;20.20;99.90
59075;DHT22;44860;53.020;6.738;2022-08-04T01:47:03;20.20;99.90
59075;DHT22;44860;53.020;6.738;2022-08-04T01:49:30;20.10;99.90
59075;DHT22;44860;53.020;6.738;2022-08-04T01:51:57;20.10;99.90
59075;DHT22;44860;53.020;6.738;2022-08-04T01:54:23;20.10;99.90
59075;DHT22;44860;53.020;6.738;2022-08-04T01:56:50;20.10;99.90
59075;DHT22;44860;53.020;6.738;2022-08-04T01:59:19;20.00;99.90
59075;DHT22;44860;53.020;6.738;2022-08-04T02:01:45;20.00;99.90
59075;DHT22;44860;53.020;6.738;2022-08-04T02:04:19;20.00;99.90
59075;DHT22;44860;53.020;6.738;2022-08-04T02:07:31;20.00;99.90
59075;DHT22;44860;53.020;6.738;2022-08-04T02:10:20;20.00;99.90
59075;DHT22;44860;53.020;6.738;2022-08-04T02:13:06;19.90;99.90
59075;DHT22;44860;53.020;6.738;2022-08-04T02:18:24;19.90;99.90
59075;DHT22;44860;53.020;6.738;2022-08-04T02:21:03;19.90;99.90
59075;DHT22;44860;53.020;6.738;2022-08-04T02:23:38;19.80;99.90
59075;DHT22;44860;53.020;6.738;2022-08-04T02:26:27;19.80;99.90
59075;DHT22;44860;53.020;6.738;2022-08-04T02:31:38;19.80;99.90
59075;DHT22;44860;53.020;6.738;2022-08-04T02:34:18;19.80;99.90
59075;DHT22;44860;53.020;6.738;2022-08-04T02:36:47;19.80;99.90
59075;DHT22;44860;53.020;6.738;2022-08-04T02:39:18;19.80;99.90
59075;DHT22;44860;53.020;6.738;2022-08-04T02:41:46;19.70;99.90
59075;DHT22;44860;53.020;6.738;2022-08-04T02:44:13;19.70;99.90
59075;DHT22;44860;53.020;6.738;2022-08-04T02:46:42;19.70;99.90
59075;DHT22;44860;53.020;6.738;2022-08-04T02:49:09;19.70;99.90
59075;DHT22;44860;53.020;6.738;2022-08-04T02:51:56;19.70;99.90
59075;DHT22;44860;53.020;6.738;2022-08-04T02:54:27;19.60;99.90
59075;DHT22;44860;53.020;6.738;2022-08-04T02:56:56;19.60;99.90
59075;DHT22;44860;53.020;6.738;2022-08-04T02:59:25;19.60;99.90
59075;DHT22;44860;53.020;6.738;2022-08-04T03:01:54;19.60;99.90
59075;DHT22;44860;53.020;6.738;2022-08-04T03:04:50;19.50;99.90
59075;DHT22;44860;53.020;6.738;2022-08-04T03:07:44;19.50;99.90
59075;DHT22;44860;53.020;6.738;2022-08-04T03:19:42;19.40;99.90
59075;DHT22;44860;53.020;6.738;2022-08-04T03:28:45;19.30;99.90
59075;DHT22;44860;53.020;6.738;2022-08-04T03:31:38;19.30;99.90
59075;DHT22;44860;53.020;6.738;2022-08-04T03:46:21;19.20;99.90
59075;DHT22;44860;53.020;6.738;2022-08-04T03:51:37;19.20;99.90
59075;DHT22;44860;53.020;6.738;2022-08-04T04:00:20;19.10;99.90
59075;DHT22;44860;53.020;6.738;2022-08-04T04:03:17;19.10;99.90
59075;DHT22;44860;53.020;6.738;2022-08-04T04:24:44;19.10;99.90
59075;DHT22;44860;53.020;6.738;2022-08-04T04:42:01;19.10;99.90
59075;DHT22;44860;53.020;6.738;2022-08-04T04:49:59;19.20;99.90
59075;DHT22;44860;53.020;6.738;2022-08-04T04:52:37;19.20;99.90
59075;DHT22;44860;53.020;6.738;2022-08-04T04:55:20;19.20;99.90
59075;DHT22;44860;53.020;6.738;2022-08-04T04:57:50;19.20;99.90
59075;DHT22;44860;53.020;6.738;2022-08-04T05:00:16;19.30;99.90
59075;DHT22;44860;53.020;6.738;2022-08-04T05:08:54;19.30;99.90
59075;DHT22;44860;53.020;6.738;2022-08-04T05:14:25;19.40;99.90
59075;DHT22;44860;53.020;6.738;2022-08-04T05:17:09;19.40;99.90
59075;DHT22;44860;53.020;6.738;2022-08-04T05:19:59;19.40;99.90
59075;DHT22;44860;53.020;6.738;2022-08-04T05:25:36;19.50;99.90
59075;DHT22;44860;53.020;6.738;2022-08-04T05:28:17;19.50;99.90
59075;DHT22;44860;53.020;6.738;2022-08-04T05:30:53;19.50;99.90
59075;DHT22;44860;53.020;6.738;2022-08-04T05:33:38;19.60;99.90
59075;DHT22;44860;53.020;6.738;2022-08-04T05:36:09;19.60;99.90
59075;DHT22;44860;53.020;6.738;2022-08-04T05:38:37;19.70;99.90
59075;DHT22;44860;53.020;6.738;2022-08-04T05:41:05;19.70;99.90
59075;DHT22;44860;53.020;6.738;2022-08-04T05:43:33;19.70;99.90
59075;DHT22;44860;53.020;6.738;2022-08-04T05:46:00;19.80;99.90
59075;DHT22;44860;53.020;6.738;2022-08-04T05:48:27;19.80;99.90
59075;DHT22;44860;53.020;6.738;2022-08-04T05:50:54;19.90;99.90
59075;DHT22;44860;53.020;6.738;2022-08-04T05:53:21;19.90;99.90
59075;DHT22;44860;53.020;6.738;2022-08-04T05:55:49;19.90;99.90
59075;DHT22;44860;53.020;6.738;2022-08-04T05:58:14;20.00;99.90
59075;DHT22;44860;53.020;6.738;2022-08-04T06:00:41;20.00;99.90
59075;DHT22;44860;53.020;6.738;2022-08-04T06:03:09;20.10;99.90
59075;DHT22;44860;53.020;6.738;2022-08-04T06:05:35;20.10;99.90
59075;DHT22;44860;53.020;6.738;2022-08-04T06:08:02;20.20;99.90
59075;DHT22;44860;53.020;6.738;2022-08-04T06:10:30;20.20;99.90
59075;DHT22;44860;53.020;6.738;2022-08-04T06:13:02;20.20;99.90
59075;DHT22;44860;53.020;6.738;2022-08-04T06:15:30;20.30;99.90
59075;DHT22;44860;53.020;6.738;2022-08-04T06:18:01;20.30;99.90
59075;DHT22;44860;53.020;6.738;2022-08-04T06:20:29;20.40;99.90
59075;DHT22;44860;53.020;6.738;2022-08-04T06:23:02;20.40;99.90
59075;DHT22;44860;53.020;6.738;2022-08-04T06:25:32;20.50;99.90
59075;DHT22;44860;53.020;6.738;2022-08-04T06:28:04;20.60;99.90
59075;DHT22;44860;53.020;6.738;2022-08-04T06:30:31;20.70;99.90
59075;DHT22;44860;53.020;6.738;2022-08-04T06:32:58;20.70;99.90
59075;DHT22;44860;53.020;6.738;2022-08-04T06:35:37;20.80;99.90
59075;DHT22;44860;53.020;6.738;2022-08-04T06:38:05;20.90;99.90
59075;DHT22;44860;53.020;6.738;2022-08-04T06:40:32;20.90;99.90
59075;DHT22;44860;53.020;6.738;2022-08-04T06:43:03;21.00;99.90
59075;DHT22;44860;53.020;6.738;2022-08-04T06:45:31;21.10;99.90
59075;DHT22;44860;53.020;6.738;2022-08-04T06:47:59;21.20;99.90
59075;DHT22;44860;53.020;6.738;2022-08-04T06:50:26;21.30;99.90
59075;DHT22;44860;53.020;6.738;2022-08-04T06:52:52;21.40;99.90
59075;DHT22;44860;53.020;6.738;2022-08-04T06:55:17;21.50;99.90
59075;DHT22;44860;53.020;6.738;2022-08-04T06:57:47;21.60;99.90
59075;DHT22;44860;53.020;6.738;2022-08-04T07:00:13;21.60;99.90
59075;DHT22;44860;53.020;6.738;2022-08-04T07:02:52;21.70;99.90
59075;DHT22;44860;53.020;6.738;2022-08-04T07:05:19;21.80;99.90
59075;DHT22;44860;53.020;6.738;2022-08-04T07:07:46;21.80;99.90
59075;DHT22;44860;53.020;6.738;2022-08-04T07:10:13;21.90;99.90
59075;DHT22;44860;53.020;6.738;2022-08-04T07:12:39;22.00;99.90
59075;DHT22;44860;53.020;6.738;2022-08-04T07:15:07;22.10;99.90
59075;DHT22;44860;53.020;6.738;2022-08-04T07:17:34;22.20;99.90
59075;DHT22;44860;53.020;6.738;2022-08-04T07:20:02;22.30;99.90
59075;DHT22;44860;53.020;6.738;2022-08-04T07:22:29;22.40;99.90
59075;DHT22;44860;53.020;6.738;2022-08-04T07:24:56;22.40;99.90
59075;DHT22;44860;53.020;6.738;2022-08-04T07:27:22;22.50;99.90
59075;DHT22;44860;53.020;6.738;2022-08-04T07:29:48;22.60;99.90
59075;DHT22;44860;53.020;6.738;2022-08-04T07:32:15;22.80;99.90
59075;DHT22;44860;53.020;6.738;2022-08-04T07:34:42;22.90;99.90
59075;DHT22;44860;53.020;6.738;2022-08-04T07:37:08;22.90;99.90
59075;DHT22;44860;53.020;6.738;2022-08-04T07:39:37;23.10;99.90
59075;DHT22;44860;53.020;6.738;2022-08-04T07:42:03;23.20;99.90
59075;DHT22;44860;53.020;6.738;2022-08-04T07:44:30;23.30;99.90
59075;DHT22;44860;53.020;6.738;2022-08-04T07:46:57;23.40;99.90
59075;DHT22;44860;53.020;6.738;2022-08-04T07:49:23;23.60;99.90
59075;DHT22;44860;53.020;6.738;2022-08-04T07:51:52;23.60;99.90
59075;DHT22;44860;53.020;6.738;2022-08-04T07:54:18;23.70;99.90
59075;DHT22;44860;53.020;6.738;2022-08-04T07:56:45;23.80;99.90
59075;DHT22;44860;53.020;6.738;2022-08-04T07:59:16;23.90;99.90
59075;DHT22;44860;53.020;6.738;2022-08-04T08:01:42;23.90;99.90
59075;DHT22;44860;53.020;6.738;2022-08-04T08:04:10;24.00;99.90
59075;DHT22;44860;53.020;6.738;2022-08-04T08:06:37;24.10;99.90
59075;DHT22;44860;53.020;6.738;2022-08-04T08:09:10;24.20;99.90
59075;DHT22;44860;53.020;6.738;2022-08-04T08:11:36;24.30;99.90
59075;DHT22;44860;53.020;6.738;2022-08-04T08:14:02;24.40;99.90
59075;DHT22;44860;53.020;6.738;2022-08-04T08:16:28;24.50;99.90
59075;DHT22;44860;53.020;6.738;2022-08-04T08:18:59;24.60;99.90
59075;DHT22;44860;53.020;6.738;2022-08-04T08:21:25;24.70;99.90
59075;DHT22;44860;53.020;6.738;2022-08-04T08:23:50;24.80;99.90
59075;DHT22;44860;53.020;6.738;2022-08-04T08:26:16;24.90;99.90
59075;DHT22;44860;53.020;6.738;2022-08-04T08:28:42;25.10;99.90
59075;DHT22;44860;53.020;6.738;2022-08-04T08:31:08;25.20;99.90
59075;DHT22;44860;53.020;6.738;2022-08-04T08:33:34;25.30;99.90
59075;DHT22;44860;53.020;6.738;2022-08-04T08:36:08;25.40;99.90
59075;DHT22;44860;53.020;6.738;2022-08-04T08:38:39;25.50;99.90
59075;DHT22;44860;53.020;6.738;2022-08-04T08:50:15;25.70;99.90
59075;DHT22;44860;53.020;6.738;2022-08-04T09:03:53;26.00;99.90
59075;DHT22;44860;53.020;6.738;2022-08-04T09:06:31;26.10;99.90
59075;DHT22;44860;53.020;6.738;2022-08-04T09:14:53;26.40;99.80
59075;DHT22;44860;53.020;6.738;2022-08-04T09:17:29;26.40;98.00
59075;DHT22;44860;53.020;6.738;2022-08-04T09:20:05;26.50;98.50
59075;DHT22;44860;53.020;6.738;2022-08-04T09:22:38;26.60;96.40
59075;DHT22;44860;53.020;6.738;2022-08-04T09:25:40;26.80;95.20
59075;DHT22;44860;53.020;6.738;2022-08-04T09:28:15;26.90;94.40
59075;DHT22;44860;53.020;6.738;2022-08-04T09:30:54;26.90;94.20
59075;DHT22;44860;53.020;6.738;2022-08-04T09:33:37;27.00;93.80
59075;DHT22;44860;53.020;6.738;2022-08-04T09:36:14;27.00;94.70
59075;DHT22;44860;53.020;6.738;2022-08-04T09:41:58;27.10;91.70
59075;DHT22;44860;53.020;6.738;2022-08-04T09:49:54;27.40;91.30
59075;DHT22;44860;53.020;6.738;2022-08-04T10:00:55;27.70;91.90
59075;DHT22;44860;53.020;6.738;2022-08-04T10:03:32;27.70;93.50
59075;DHT22;44860;53.020;6.738;2022-08-04T10:09:07;27.80;93.80
59075;DHT22;44860;53.020;6.738;2022-08-04T10:20:10;27.80;92.60
59075;DHT22;44860;53.020;6.738;2022-08-04T10:22:40;27.80;91.20
59075;DHT22;44860;53.020;6.738;2022-08-04T10:25:24;27.80;90.70
59075;DHT22;44860;53.020;6.738;2022-08-04T10:27:54;27.80;91.60
59075;DHT22;44860;53.020;6.738;2022-08-04T10:30:22;27.80;91.50
59075;DHT22;44860;53.020;6.738;2022-08-04T10:32:59;27.80;91.90
59075;DHT22;44860;53.020;6.738;2022-08-04T10:35:33;27.80;91.60
59075;DHT22;44860;53.020;6.738;2022-08-04T10:38:15;27.80;91.80
59075;DHT22;44860;53.020;6.738;2022-08-04T10:41:09;27.80;90.70
59075;DHT22;44860;53.020;6.738;2022-08-04T10:44:27;27.80;90.60
59075;DHT22;44860;53.020;6.738;2022-08-04T10:46:28;27.80;89.10
59075;DHT22;44860;53.020;6.738;2022-08-04T10:51:45;27.90;88.40
59075;DHT22;44860;53.020;6.738;2022-08-04T10:56:57;28.00;84.40
59075;DHT22;44860;53.020;6.738;2022-08-04T10:59:38;28.00;84.90
59075;DHT22;44860;53.020;6.738;2022-08-04T11:05:11;28.10;82.70
59075;DHT22;44860;53.020;6.738;2022-08-04T11:07:44;28.10;81.60
59075;DHT22;44860;53.020;6.738;2022-08-04T11:10:12;28.20;80.70
59075;DHT22;44860;53.020;6.738;2022-08-04T11:12:43;28.20;79.70
59075;DHT22;44860;53.020;6.738;2022-08-04T11:15:22;28.20;79.20
59075;DHT22;44860;53.020;6.738;2022-08-04T11:18:01;28.20;76.30
59075;DHT22;44860;53.020;6.738;2022-08-04T11:20:37;28.20;73.90
59075;DHT22;44860;53.020;6.738;2022-08-04T11:23:14;28.10;72.90
59075;DHT22;44860;53.020;6.738;2022-08-04T11:26:04;28.10;72.50
59075;DHT22;44860;53.020;6.738;2022-08-04T11:31:25;28.10;68.70
59075;DHT22;44860;53.020;6.738;2022-08-04T11:39:23;27.90;62.20
59075;DHT22;44860;53.020;6.738;2022-08-04T11:42:00;27.80;62.20
59075;DHT22;44860;53.020;6.738;2022-08-04T11:44:35;27.80;62.60
59075;DHT22;44860;53.020;6.738;2022-08-04T11:47:08;27.80;63.90
59075;DHT22;44860;53.020;6.738;2022-08-04T11:49:53;27.70;65.20
59075;DHT22;44860;53.020;6.738;2022-08-04T11:52:21;27.70;67.30
59075;DHT22;44860;53.020;6.738;2022-08-04T11:54:47;27.70;69.30
59075;DHT22;44860;53.020;6.738;2022-08-04T11:57:14;27.70;70.90
59075;DHT22;44860;53.020;6.738;2022-08-04T11:59:41;27.80;74.40
59075;DHT22;44860;53.020;6.738;2022-08-04T12:05:00;27.70;78.40
59075;DHT22;44860;53.020;6.738;2022-08-04T12:07:43;27.60;80.60
59075;DHT22;44860;53.020;6.738;2022-08-04T12:13:30;27.60;84.60
59075;DHT22;44860;53.020;6.738;2022-08-04T12:16:24;27.60;84.20
59075;DHT22;44860;53.020;6.738;2022-08-04T12:18:58;27.60;85.00
59075;DHT22;44860;53.020;6.738;2022-08-04T12:21:39;27.50;85.20
59075;DHT22;44860;53.020;6.738;2022-08-04T12:24:22;27.40;83.50
59075;DHT22;44860;53.020;6.738;2022-08-04T12:26:52;27.40;83.30
59075;DHT22;44860;53.020;6.738;2022-08-04T12:29:21;27.30;81.50
59075;DHT22;44860;53.020;6.738;2022-08-04T12:31:50;27.30;79.90
59075;DHT22;44860;53.020;6.738;2022-08-04T12:34:33;27.20;78.60
59075;DHT22;44860;53.020;6.738;2022-08-04T12:37:17;27.10;79.70
59075;DHT22;44860;53.020;6.738;2022-08-04T12:39:47;27.10;79.40
59075;DHT22;44860;53.020;6.738;2022-08-04T12:42:23;27.00;77.90
59075;DHT22;44860;53.020;6.738;2022-08-04T12:44:49;27.00;75.80
59075;DHT22;44860;53.020;6.738;2022-08-04T12:47:23;26.90;73.90
59075;DHT22;44860;53.020;6.738;2022-08-04T12:49:50;26.80;75.00
59075;DHT22;44860;53.020;6.738;2022-08-04T12:52:17;26.70;74.90
59075;DHT22;44860;53.020;6.738;2022-08-04T12:54:49;26.70;75.50
59075;DHT22;44860;53.020;6.738;2022-08-04T12:57:17;26.60;77.50
59075;DHT22;44860;53.020;6.738;2022-08-04T12:59:43;26.60;79.10
59075;DHT22;44860;53.020;6.738;2022-08-04T13:02:42;26.50;79.60
59075;DHT22;44860;53.020;6.738;2022-08-04T13:05:10;26.40;84.20
59075;DHT22;44860;53.020;6.738;2022-08-04T13:07:42;26.40;84.00
59075;DHT22;44860;53.020;6.738;2022-08-04T13:10:11;26.30;83.80
59075;DHT22;44860;53.020;6.738;2022-08-04T13:12:40;26.30;84.80
59075;DHT22;44860;53.020;6.738;2022-08-04T13:15:16;26.20;85.50
59075;DHT22;44860;53.020;6.738;2022-08-04T13:17:52;26.20;84.70
59075;DHT22;44860;53.020;6.738;2022-08-04T13:20:29;26.20;85.70
59075;DHT22;44860;53.020;6.738;2022-08-04T13:23:14;26.20;85.30
59075;DHT22;44860;53.020;6.738;2022-08-04T13:25:43;26.20;85.30
59075;DHT22;44860;53.020;6.738;2022-08-04T13:28:22;26.20;84.60
59075;DHT22;44860;53.020;6.738;2022-08-04T13:30:57;26.20;85.10
59075;DHT22;44860;53.020;6.738;2022-08-04T13:33:28;26.20;79.50
59075;DHT22;44860;53.020;6.738;2022-08-04T13:35:57;26.20;80.20
59075;DHT22;44860;53.020;6.738;2022-08-04T13:38:25;26.20;80.90
59075;DHT22;44860;53.020;6.738;2022-08-04T13:40:52;26.20;78.40
59075;DHT22;44860;53.020;6.738;2022-08-04T13:43:32;26.20;75.10
59075;DHT22;44860;53.020;6.738;2022-08-04T13:46:03;26.40;74.60
59075;DHT22;44860;53.020;6.738;2022-08-04T13:48:32;26.50;72.60
59075;DHT22;44860;53.020;6.738;2022-08-04T13:51:03;26.60;69.80
59075;DHT22;44860;53.020;6.738;2022-08-04T13:53:32;26.70;69.70
59075;DHT22;44860;53.020;6.738;2022-08-04T13:55:59;26.80;68.70
59075;DHT22;44860;53.020;6.738;2022-08-04T13:58:31;26.80;68.20
59075;DHT22;44860;53.020;6.738;2022-08-04T14:00:58;26.90;69.00
59075;DHT22;44860;53.020;6.738;2022-08-04T14:03:36;27.00;68.10
59075;DHT22;44860;53.020;6.738;2022-08-04T14:08:48;27.10;65.00
59075;DHT22;44860;53.020;6.738;2022-08-04T14:11:16;27.10;64.00
59075;DHT22;44860;53.020;6.738;2022-08-04T14:13:42;27.10;62.30
59075;DHT22;44860;53.020;6.738;2022-08-04T14:16:19;27.20;63.90
59075;DHT22;44860;53.020;6.738;2022-08-04T14:18:47;27.20;62.80
59075;DHT22;44860;53.020;6.738;2022-08-04T14:21:21;27.30;63.20
59075;DHT22;44860;53.020;6.738;2022-08-04T14:23:53;27.40;63.10
59075;DHT22;44860;53.020;6.738;2022-08-04T14:28:55;27.50;61.20
59075;DHT22;44860;53.020;6.738;2022-08-04T14:31:25;27.60;60.50
59075;DHT22;44860;53.020;6.738;2022-08-04T14:33:52;27.60;60.50
59075;DHT22;44860;53.020;6.738;2022-08-04T14:36:20;27.70;60.10
59075;DHT22;44860;53.020;6.738;2022-08-04T14:38:54;27.80;59.20
59075;DHT22;44860;53.020;6.738;2022-08-04T14:41:24;27.70;58.20
59075;DHT22;44860;53.020;6.738;2022-08-04T14:43:54;27.70;58.20
59075;DHT22;44860;53.020;6.738;2022-08-04T14:46:22;27.80;57.40
59075;DHT22;44860;53.020;6.738;2022-08-04T14:49:06;27.80;56.80
59075;DHT22;44860;53.020;6.738;2022-08-04T14:51:53;27.70;57.00
59075;DHT22;44860;53.020;6.738;2022-08-04T14:54:34;27.70;56.90
59075;DHT22;44860;53.020;6.738;2022-08-04T14:57:03;27.70;58.40
59075;DHT22;44860;53.020;6.738;2022-08-04T14:59:46;27.80;58.60
59075;DHT22;44860;53.020;6.738;2022-08-04T15:02:14;27.90;57.00
59075;DHT22;44860;53.020;6.738;2022-08-04T15:04:42;27.90;57.60
59075;DHT22;44860;53.020;6.738;2022-08-04T15:07:08;27.90;56.30
59075;DHT22;44860;53.020;6.738;2022-08-04T15:09:35;28.00;54.20
59075;DHT22;44860;53.020;6.738;2022-08-04T15:12:04;28.00;53.50
59075;DHT22;44860;53.020;6.738;2022-08-04T15:14:30;28.00;52.50
59075;DHT22;44860;53.020;6.738;2022-08-04T15:16:57;27.90;51.80
59075;DHT22;44860;53.020;6.738;2022-08-04T15:19:23;27.80;52.10
59075;DHT22;44860;53.020;6.738;2022-08-04T15:21:53;27.80;52.90
59075;DHT22;44860;53.020;6.738;2022-08-04T15:24:20;27.70;52.60
59075;DHT22;44860;53.020;6.738;2022-08-04T15:26:50;27.80;53.10
59075;DHT22;44860;53.020;6.738;2022-08-04T15:29:19;27.80;52.60
59075;DHT22;44860;53.020;6.738;2022-08-04T15:31:48;27.80;52.90
59075;DHT22;44860;53.020;6.738;2022-08-04T15:34:15;27.70;54.20
59075;DHT22;44860;53.020;6.738;2022-08-04T15:36:54;27.70;57.50
59075;DHT22;44860;53.020;6.738;2022-08-04T15:39:33;27.60;60.90
59075;DHT22;44860;53.020;6.738;2022-08-04T15:42:29;27.70;62.30
59075;DHT22;44860;53.020;6.738;2022-08-04T15:50:28;27.60;63.50
59075;DHT22;44860;53.020;6.738;2022-08-04T15:55:32;27.50;62.80
59075;DHT22;44860;53.020;6.738;2022-08-04T15:58:04;27.60;61.00
59075;DHT22;44860;53.020;6.738;2022-08-04T16:14:14;27.10;61.40
59075;DHT22;44860;53.020;6.738;2022-08-04T16:19:48;27.00;61.50
59075;DHT22;44860;53.020;6.738;2022-08-04T16:22:34;26.90;59.10
59075;DHT22;44860;53.020;6.738;2022-08-04T16:25:00;26.70;58.60
59075;DHT22;44860;53.020;6.738;2022-08-04T16:27:41;26.60;59.00
59075;DHT22;44860;53.020;6.738;2022-08-04T16:30:12;26.50;59.60
59075;DHT22;44860;53.020;6.738;2022-08-04T16:32:44;26.40;60.40
59075;DHT22;44860;53.020;6.738;2022-08-04T16:35:22;26.40;60.70
59075;DHT22;44860;53.020;6.738;2022-08-04T16:37:53;26.30;59.70
59075;DHT22;44860;53.020;6.738;2022-08-04T16:40:31;26.30;59.80
59075;DHT22;44860;53.020;6.738;2022-08-04T16:43:04;26.20;54.90
59075;DHT22;44860;53.020;6.738;2022-08-04T16:45:44;26.10;52.60
59075;DHT22;44860;53.020;6.738;2022-08-04T16:48:10;26.00;52.80
59075;DHT22;44860;53.020;6.738;2022-08-04T16:51:08;25.90;54.40
59075;DHT22;44860;53.020;6.738;2022-08-04T16:53:37;25.90;53.40
59075;DHT22;44860;53.020;6.738;2022-08-04T16:56:04;25.80;53.50
59075;DHT22;44860;53.020;6.738;2022-08-04T16:58:36;25.70;53.30
59075;DHT22;44860;53.020;6.738;2022-08-04T17:03:32;25.80;52.20
59075;DHT22;44860;53.020;6.738;2022-08-04T17:06:05;25.80;51.40
59075;DHT22;44860;53.020;6.738;2022-08-04T17:08:32;25.80;50.60
59075;DHT22;44860;53.020;6.738;2022-08-04T17:11:00;25.70;51.70
59075;DHT22;44860;53.020;6.738;2022-08-04T17:13:34;25.70;53.50
59075;DHT22;44860;53.020;6.738;2022-08-04T17:16:03;25.60;55.90
59075;DHT22;44860;53.020;6.738;2022-08-04T17:18:32;25.60;57.20
59075;DHT22;44860;53.020;6.738;2022-08-04T17:21:09;25.50;60.80
59075;DHT22;44860;53.020;6.738;2022-08-04T17:23:44;25.50;62.80
59075;DHT22;44860;53.020;6.738;2022-08-04T17:26:16;25.30;65.30
59075;DHT22;44860;53.020;6.738;2022-08-04T17:28:46;25.30;67.60
59075;DHT22;44860;53.020;6.738;2022-08-04T17:31:12;25.20;69.00
59075;DHT22;44860;53.020;6.738;2022-08-04T17:33:43;25.20;71.00
59075;DHT22;44860;53.020;6.738;2022-08-04T17:36:14;25.10;73.30
59075;DHT22;44860;53.020;6.738;2022-08-04T17:41:09;25.10;73.50
59075;DHT22;44860;53.020;6.738;2022-08-04T17:46:25;25.00;74.00
59075;DHT22;44860;53.020;6.738;2022-08-04T17:51:51;24.80;74.60
59075;DHT22;44860;53.020;6.738;2022-08-04T17:54:29;24.70;74.50
59075;DHT22;44860;53.020;6.738;2022-08-04T17:56:56;24.60;74.50
59075;DHT22;44860;53.020;6.738;2022-08-04T17:59:50;24.50;75.30
59075;DHT22;44860;53.020;6.738;2022-08-04T18:02:22;24.40;75.40
59075;DHT22;44860;53.020;6.738;2022-08-04T18:04:52;24.30;76.40
59075;DHT22;44860;53.020;6.738;2022-08-04T18:07:23;24.30;76.90
59075;DHT22;44860;53.020;6.738;2022-08-04T18:09:55;24.20;77.60
59075;DHT22;44860;53.020;6.738;2022-08-04T18:12:26;24.10;78.10
59075;DHT22;44860;53.020;6.738;2022-08-04T18:14:58;24.10;78.40
59075;DHT22;44860;53.020;6.738;2022-08-04T18:17:43;24.00;78.50
59075;DHT22;44860;53.020;6.738;2022-08-04T18:20:17;23.90;78.80
59075;DHT22;44860;53.020;6.738;2022-08-04T18:22:46;23.90;79.60
59075;DHT22;44860;53.020;6.738;2022-08-04T18:25:14;23.80;80.50
59075;DHT22;44860;53.020;6.738;2022-08-04T18:30:16;23.70;82.30
59075;DHT22;44860;53.020;6.738;2022-08-04T18:32:42;23.60;83.40
59075;DHT22;44860;53.020;6.738;2022-08-04T18:35:09;23.60;84.10
59075;DHT22;44860;53.020;6.738;2022-08-04T18:37:38;23.50;84.90
59075;DHT22;44860;53.020;6.738;2022-08-04T18:40:05;23.40;85.40
59075;DHT22;44860;53.020;6.738;2022-08-04T18:42:32;23.40;85.50
59075;DHT22;44860;53.020;6.738;2022-08-04T18:44:59;23.30;85.40
59075;DHT22;44860;53.020;6.738;2022-08-04T18:47:24;23.20;85.30
59075;DHT22;44860;53.020;6.738;2022-08-04T18:49:51;23.20;85.60
59075;DHT22;44860;53.020;6.738;2022-08-04T18:52:17;23.10;85.90
59075;DHT22;44860;53.020;6.738;2022-08-04T18:54:42;23.10;85.90
59075;DHT22;44860;53.020;6.738;2022-08-04T18:57:08;23.00;85.50
59075;DHT22;44860;53.020;6.738;2022-08-04T18:59:34;22.90;84.90
59075;DHT22;44860;53.020;6.738;2022-08-04T19:02:01;22.90;84.70
59075;DHT22;44860;53.020;6.738;2022-08-04T19:04:27;22.80;85.70
59075;DHT22;44860;53.020;6.738;2022-08-04T19:06:53;22.70;86.80
59075;DHT22;44860;53.020;6.738;2022-08-04T19:09:18;22.60;87.50
59075;DHT22;44860;53.020;6.738;2022-08-04T19:11:44;22.60;88.70
59075;DHT22;44860;53.020;6.738;2022-08-04T19:14:10;22.50;89.40
59075;DHT22;44860;53.020;6.738;2022-08-04T19:16:38;22.50;89.80
59075;DHT22;44860;53.020;6.738;2022-08-04T19:19:05;22.40;90.20
59075;DHT22;44860;53.020;6.738;2022-08-04T19:21:31;22.40;90.20
59075;DHT22;44860;53.020;6.738;2022-08-04T19:23:57;22.30;90.40
59075;DHT22;44860;53.020;6.738;2022-08-04T19:26:23;22.30;90.60
59075;DHT22;44860;53.020;6.738;2022-08-04T19:28:51;22.30;90.80
59075;DHT22;44860;53.020;6.738;2022-08-04T19:31:17;22.30;91.20
59075;DHT22;44860;53.020;6.738;2022-08-04T19:33:44;22.20;91.50
59075;DHT22;44860;53.020;6.738;2022-08-04T19:36:10;22.20;91.90
59075;DHT22;44860;53.020;6.738;2022-08-04T19:38:37;22.10;92.10
59075;DHT22;44860;53.020;6.738;2022-08-04T19:41:06;22.10;92.30
59075;DHT22;44860;53.020;6.738;2022-08-04T19:43:32;22.00;92.70
59075;DHT22;44860;53.020;6.738;2022-08-04T19:45:58;21.90;93.30
59075;DHT22;44860;53.020;6.738;2022-08-04T19:48:24;21.90;93.90
59075;DHT22;44860;53.020;6.738;2022-08-04T19:50:53;21.80;94.50
59075;DHT22;44860;53.020;6.738;2022-08-04T19:53:19;21.80;94.80
59075;DHT22;44860;53.020;6.738;2022-08-04T19:55:47;21.80;95.20
59075;DHT22;44860;53.020;6.738;2022-08-04T19:58:13;21.70;95.50
59075;DHT22;44860;53.020;6.738;2022-08-04T20:00:39;21.70;96.00
59075;DHT22;44860;53.020;6.738;2022-08-04T20:03:08;21.70;96.40
59075;DHT22;44860;53.020;6.738;2022-08-04T20:05:34;21.60;96.90
59075;DHT22;44860;53.020;6.738;2022-08-04T20:08:00;21.60;97.30
59075;DHT22;44860;53.020;6.738;2022-08-04T20:10:26;21.50;97.80
59075;DHT22;44860;53.020;6.738;2022-08-04T20:12:51;21.40;98.00
59075;DHT22;44860;53.020;6.738;2022-08-04T20:15:19;21.40;98.40
59075;DHT22;44860;53.020;6.738;2022-08-04T20:17:45;21.30;98.50